AirNav   Advertisement
 
 789 users online  

62TE Otto Kaiser Hospital Heliport
Kenedy, Texas, USA


FAA INFORMATION EFFECTIVE 20 JULY 2017

Location

FAA Identifier: 62TE
Lat/Long: 28-51-00.9230N / 097-52-44.0060W
28-51.015383N / 097-52.733433W
28.8502564 / -97.8788906
(estimated)
Elevation: 395 ft. / 120 m (estimated)
Variation: 07E (1985)
From city: 2 miles N of KENEDY, TX
Time zone: UTC -5 (UTC -6 during Standard Time)
Zip code: 78119

Heliport Operations

Heliport use: Private use, MEDICAL.
Activation date: 09/1972
Control tower: no
ARTCC: HOUSTON CENTER
FSS: SAN ANGELO FLIGHT SERVICE STATION
Attendance: UNATNDD
Wind indicator: yes
Segmented circle: no
Lights: FOR PERIMETER LGTS CALL 830-583-3401.

Nearby radio navigation aids

VOR radial/distance  VOR name  Freq  Var
THXr027/25.2THREE RIVERS VORTAC111.4008E
SSFr121/(38.4)STINSON VOR108.4009E

Heliport Services

Runway Information

Helipad H1

Dimensions: 90 x 90 ft. / 27 x 27 m
Surface: concrete
Runway edge lights: PERI
Latitude: 28-51.015383N
Longitude: 097-52.733433W
Elevation: 395.0 ft.
Traffic pattern: leftleft

Heliport Ownership and Management from official FAA records

Ownership: Publicly-owned
Owner: OTTO KAISER MEMORIAL HOSPITAL
3349 S. HWY 181
KENEDY, TX 78119
Phone 830-583-3401
Manager: CHRISTINA BENAVIDES
3349 S. HWY 181
KENEDY, TX 78119
Phone 830-583-3401
ADDITIONAL CONTACT: FREDDY MOYA - 830-583-4572.

Additional Remarks

A52-H1 RADIO TWR NW OF HELIPAD; LGTD WATER TOWER 250 FT FROM THLD.

Instrument Procedures

There are no published instrument procedures at 62TE.

Some nearby airports with instrument procedures:

2R9 - Karnes County Airport (2 nm SE)
KNGT - Goliad Naval Outlying Field (20 nm SE)
KBEA - Beeville Municipal Airport (30 nm S)
8T6 - Live Oak County Airport (32 nm SW)
KPEZ - Pleasanton Municipal Airport (34 nm W)
 
Loc | Ops | Rwys | IFR | FBO | Links
Com | Nav | Svcs | Stats | Notes


 
Area around 62TE (Otto Kaiser Hospital Heliport)
 
Road maps at: MapQuest Bing Google
 
Aerial photo
No photo
 
Sectional chart

 
Airport distance calculator
Flying to Otto Kaiser Hospital Heliport? Find the distance to fly.

From to 62TE

Sunrise and sunset
Times for 25-Jul-2017
 Local
(UTC-5)
 Zulu
(UTC)
Morning civil twilight06:2411:24
Sunrise06:5011:50
Sunset20:2601:26
Evening civil twilight20:5201:52

Current date and time
Zulu (UTC)  26-Jul-2017 03:52:48
Local (UTC-5)  25-Jul-2017 22:52:48
 
METAR
KBEA 
30nm S 
260340Z AUTO 13006KT 10SM CLR 28/26 A3006 RMK AO2 T02830255
KPEZ 
34nm W 
260335Z AUTO 14006KT 10SM CLR 30/21 A3006 RMK AO2 T02960211
KSSF 
42nm NW 
260253Z 15014KT 10SM CLR 31/21 A3004 RMK AO2 LTG DSNT NW SLP157 T03110211 53023
KRND 
45nm NW 
260256Z AUTO 15010KT 10SM CLR 30/23 A3006 RMK AO2 SLPNO T02970226 52021 $
KT20 
46nm NE 
260335Z AUTO 15006KT 10SM CLR 29/23 A3007 RMK AO2 T02850233
KSKF 
48nm NW 
260258Z AUTO 14012KT 10SM CLR 31/22 A3004 RMK AO2 SLPNO T03060221 52023 VISNO RWY34 $
KVCT 
50nm E 
260251Z AUTO 14010KT 10SM FEW026 28/24 A3006 RMK AO2 SLP178 T02830244 53012
TAF
KSSF 
42nm NW 
252218Z 2522/2618 14012KT P6SM SCT060 SCT250 FM260900 13005KT P6SM BKN020 FM261500 16008KT P6SM SCT030
KRND 
45nm NW 
251505Z 2515/2615 18012G18KT 9999 BKN017 BKN100 OVC250 QNH3001INS BECMG 2515/2516 18012G18KT 9999 SCT020 SCT100 QNH3002INS BECMG 2602/2603 15009KT 9999 FEW015 QNH3003INS TEMPO 2609/2612 BKN015 BECMG 2614/2615 18012G18KT 9999 FEW050 QNH3006INS TX37/2521Z TN22/2612Z
KSKF 
48nm NW 
260200Z 2602/2708 15012KT 9999 FEW030 QNH2995INS TEMPO 2602/2604 15015G25KT BECMG 2609/2610 16012KT 9999 BKN015 QNH3002INS BECMG 2614/2615 16012G18KT 9999 FEW050 QNH2992INS TX38/2621Z TN24/2612Z
KVCT 
50nm E 
251120Z 2512/2612 16003KT P6SM SCT025 SCT250 TEMPO 2512/2514 6SM BR BKN025 FM251500 17012KT P6SM VCSH SCT035 BKN250 FM251900 15014G20KT P6SM FEW040 SCT250 FM260100 15010KT P6SM SCT050 SCT250
NOTAMs
Click for the latest NOTAMs
NOTAMs are issued by the DoD/FAA and will open in a separate window not controlled by AirNav.

 

 
 

Would you like to see your business listed on this page?

 If your business provides an interesting product or service to pilots, flight crews, aircraft, or users of the Otto Kaiser Hospital Heliport, you should consider listing it here.  To start the listing process, click on the button below
 
Add a business
 

Other Pages about Otto Kaiser Hospital Heliport

Update a link
 
Copyright © AirNav, LLC. All rights reserved. Privacy Policy  Contact